createdAt,value
2022-12-18T00:02:26.039Z,33.23
2022-12-18T00:04:56.439Z,33.70
2022-12-18T00:07:24.458Z,36.60
2022-12-18T00:09:52.479Z,33.83
2022-12-18T00:12:21.936Z,35.30
2022-12-18T00:14:49.873Z,33.60
2022-12-18T00:17:18.060Z,33.53
2022-12-18T00:19:46.078Z,32.70
2022-12-18T00:22:14.171Z,31.20
2022-12-18T00:24:42.167Z,34.50
2022-12-18T00:27:10.175Z,33.37
2022-12-18T00:29:41.998Z,31.83
2022-12-18T00:32:09.945Z,33.50
2022-12-18T00:34:38.044Z,33.30
2022-12-18T00:37:06.081Z,31.70
2022-12-18T00:39:34.216Z,31.83
2022-12-18T00:42:19.865Z,33.47
2022-12-18T00:44:49.260Z,28.73
2022-12-18T00:47:17.297Z,28.87
2022-12-18T00:49:46.385Z,29.40
2022-12-18T00:52:14.318Z,28.77
2022-12-18T00:54:42.267Z,28.27
2022-12-18T00:57:10.235Z,26.40
2022-12-18T00:59:38.185Z,27.23
2022-12-18T01:02:07.699Z,25.50
2022-12-18T01:04:36.113Z,28.03
2022-12-18T01:07:04.023Z,25.00
2022-12-18T01:09:33.032Z,23.40
2022-12-18T01:12:00.948Z,24.07
2022-12-18T01:14:28.970Z,22.87
2022-12-18T01:16:56.897Z,21.73
2022-12-18T01:19:26.204Z,22.97
2022-12-18T01:21:54.158Z,17.97
2022-12-18T01:24:22.156Z,17.80
2022-12-18T01:26:50.236Z,18.53
2022-12-18T01:29:18.197Z,18.20
2022-12-18T01:31:46.201Z,18.97
2022-12-18T01:34:14.200Z,19.67
2022-12-18T01:36:43.538Z,19.80
2022-12-18T01:39:13.711Z,18.73
2022-12-18T01:41:59.734Z,18.50
2022-12-18T01:44:55.385Z,19.33
2022-12-18T01:47:27.792Z,10.20
2022-12-18T01:49:57.330Z,19.57
2022-12-18T01:52:28.565Z,17.57
2022-12-18T01:54:57.623Z,18.50
2022-12-18T01:57:27.462Z,14.33
2022-12-18T01:59:58.940Z,17.03
2022-12-18T02:02:29.868Z,15.53
2022-12-18T02:04:58.007Z,14.90
2022-12-18T02:07:39.436Z,19.67
2022-12-18T02:10:14.157Z,13.23
2022-12-18T02:12:49.948Z,16.13
2022-12-18T02:15:26.216Z,15.90
2022-12-18T02:17:59.520Z,16.63
2022-12-18T02:20:36.199Z,18.10
2022-12-18T02:23:22.235Z,17.97
2022-12-18T02:26:09.773Z,15.10
2022-12-18T02:28:42.141Z,19.53
2022-12-18T02:31:13.854Z,15.83
2022-12-18T02:33:44.154Z,17.93
2022-12-18T02:36:15.798Z,18.90
2022-12-18T02:38:45.298Z,16.83
2022-12-18T02:41:16.692Z,16.40
2022-12-18T02:43:49.454Z,16.10
2022-12-18T02:46:34.381Z,15.10
2022-12-18T02:49:13.141Z,15.37
2022-12-18T02:51:51.617Z,13.47
2022-12-18T02:54:27.011Z,17.57
2022-12-18T02:56:59.853Z,15.00
2022-12-18T02:59:36.437Z,13.27
2022-12-18T03:02:17.141Z,14.00
2022-12-18T03:04:50.774Z,17.60
2022-12-18T03:07:24.018Z,15.30
2022-12-18T03:09:54.681Z,16.10
2022-12-18T03:12:30.521Z,15.80
2022-12-18T03:15:03.147Z,16.50
2022-12-18T03:17:34.641Z,16.40
2022-12-18T03:20:10.057Z,10.23
2022-12-18T03:22:40.578Z,14.90
2022-12-18T03:25:13.059Z,10.53
2022-12-18T03:27:46.890Z,16.70
2022-12-18T03:30:17.219Z,19.10
2022-12-18T03:32:49.730Z,17.57
2022-12-18T03:35:24.124Z,19.73
2022-12-18T03:37:52.504Z,12.60
2022-12-18T03:40:22.573Z,11.13
2022-12-18T03:42:57.107Z,17.43
2022-12-18T03:45:29.401Z,11.17
2022-12-18T03:48:03.486Z,16.30
2022-12-18T03:50:40.551Z,16.20
2022-12-18T03:53:19.662Z,17.93
2022-12-18T03:55:48.482Z,15.87
2022-12-18T03:58:21.777Z,14.37
2022-12-18T04:00:51.885Z,15.60
2022-12-18T04:03:25.421Z,13.03
2022-12-18T04:05:56.574Z,10.57
2022-12-18T04:08:25.224Z,13.03
2022-12-18T04:10:53.201Z,13.03
2022-12-18T04:13:26.743Z,14.27
2022-12-18T04:15:54.825Z,13.80
2022-12-18T04:18:22.818Z,16.43
2022-12-18T04:20:50.968Z,8.73
2022-12-18T04:23:18.898Z,16.03
2022-12-18T04:25:48.730Z,11.23
2022-12-18T04:28:16.705Z,10.40
2022-12-18T04:30:46.045Z,12.63
2022-12-18T04:33:15.363Z,17.23
2022-12-18T04:35:44.417Z,13.80
2022-12-18T04:38:12.811Z,14.87
2022-12-18T04:40:41.169Z,14.23
2022-12-18T04:43:09.942Z,16.00
2022-12-18T04:45:38.337Z,15.10
2022-12-18T04:48:08.103Z,14.17
2022-12-18T04:50:36.224Z,17.47
2022-12-18T04:53:04.179Z,15.80
2022-12-18T04:55:32.372Z,14.80
2022-12-18T04:58:00.306Z,14.77
2022-12-18T05:00:28.823Z,15.47
2022-12-18T05:02:57.340Z,14.93
2022-12-18T05:05:27.191Z,15.93
2022-12-18T05:07:55.165Z,13.80
2022-12-18T05:10:23.122Z,14.97
2022-12-18T05:13:03.084Z,14.07
2022-12-18T05:15:32.229Z,12.10
2022-12-18T05:18:01.326Z,13.97
2022-12-18T05:20:30.757Z,16.93
2022-12-18T05:22:58.646Z,15.30
2022-12-18T05:25:27.100Z,14.40
2022-12-18T05:27:55.243Z,14.90
2022-12-18T05:30:23.518Z,14.10
2022-12-18T05:32:51.509Z,15.13
2022-12-18T05:35:19.718Z,12.40
2022-12-18T05:37:49.036Z,16.67
2022-12-18T05:40:17.059Z,14.40
2022-12-18T05:42:45.022Z,14.83
2022-12-18T05:45:12.993Z,9.97
2022-12-18T05:47:48.140Z,13.80
2022-12-18T05:50:16.542Z,14.70
2022-12-18T05:52:44.487Z,13.87
2022-12-18T05:55:13.783Z,12.60
2022-12-18T05:57:41.820Z,14.20
2022-12-18T06:00:11.364Z,15.33
2022-12-18T06:02:39.547Z,12.87
2022-12-18T06:05:08.360Z,17.20
2022-12-18T06:07:36.314Z,14.80
2022-12-18T06:10:04.464Z,14.20
2022-12-18T06:12:34.841Z,13.53
2022-12-18T06:15:03.084Z,12.27
2022-12-18T06:17:31.370Z,14.03
2022-12-18T06:19:59.753Z,14.33
2022-12-18T06:22:27.939Z,13.90
2022-12-18T06:24:55.967Z,12.90
2022-12-18T06:27:23.971Z,12.33
2022-12-18T06:29:53.602Z,14.57
2022-12-18T06:32:21.765Z,11.77
2022-12-18T06:34:49.687Z,15.60
2022-12-18T06:37:17.683Z,15.13
2022-12-18T06:39:45.731Z,15.20
2022-12-18T06:42:14.015Z,14.03
2022-12-18T06:44:41.944Z,14.00
2022-12-18T06:47:11.661Z,14.43
2022-12-18T06:49:39.629Z,15.03
2022-12-18T06:52:07.609Z,11.77
2022-12-18T06:54:35.616Z,13.67
2022-12-18T06:57:03.562Z,13.43
2022-12-18T06:59:31.507Z,14.50
2022-12-18T07:01:59.688Z,13.77
2022-12-18T07:04:31.554Z,13.53
2022-12-18T07:06:59.635Z,13.57
2022-12-18T07:09:29.686Z,14.73
2022-12-18T07:11:57.659Z,14.10
2022-12-18T07:14:26.074Z,14.30
2022-12-18T07:16:54.081Z,13.80
2022-12-18T07:19:24.291Z,14.03
2022-12-18T07:21:53.847Z,10.10
2022-12-18T07:24:21.832Z,13.97
2022-12-18T07:26:49.980Z,12.50
2022-12-18T07:29:18.035Z,12.10
2022-12-18T07:31:46.450Z,11.20
2022-12-18T07:34:15.663Z,7.80
2022-12-18T07:36:43.829Z,12.87
2022-12-18T07:39:14.426Z,12.80
2022-12-18T07:41:47.072Z,13.03
2022-12-18T07:44:15.600Z,14.10
2022-12-18T07:46:45.883Z,9.20
2022-12-18T07:49:14.294Z,14.63
2022-12-18T07:51:42.639Z,16.37
2022-12-18T07:54:10.590Z,14.33
2022-12-18T07:56:39.871Z,14.27
2022-12-18T07:59:26.374Z,13.23
2022-12-18T08:02:53.863Z,14.53
2022-12-18T08:05:22.079Z,14.23
2022-12-18T08:07:50.026Z,14.90
2022-12-18T08:10:18.698Z,12.27
2022-12-18T08:12:50.559Z,15.83
2022-12-18T08:15:18.723Z,14.17
2022-12-18T08:17:46.757Z,14.10
2022-12-18T08:20:16.111Z,14.47
2022-12-18T08:22:44.550Z,15.10
2022-12-18T08:25:12.776Z,15.47
2022-12-18T08:27:40.676Z,14.90
2022-12-18T08:30:12.073Z,13.73
2022-12-18T08:32:40.001Z,15.10
2022-12-18T08:35:09.459Z,15.23
2022-12-18T08:37:37.837Z,13.50
2022-12-18T08:40:06.968Z,14.63
2022-12-18T08:42:52.315Z,13.70
2022-12-18T08:45:21.526Z,14.97
2022-12-18T08:47:49.901Z,15.40
2022-12-18T08:50:18.096Z,15.13
2022-12-18T08:52:46.158Z,16.20
2022-12-18T08:55:15.131Z,13.40
2022-12-18T08:57:43.133Z,14.07
2022-12-18T09:00:14.252Z,12.07
2022-12-18T09:02:45.167Z,13.00
2022-12-18T09:05:13.546Z,12.73
2022-12-18T09:07:41.737Z,13.83
2022-12-18T09:10:10.277Z,9.40
2022-12-18T09:12:38.263Z,13.30
2022-12-18T09:15:07.297Z,14.40
2022-12-18T09:17:35.263Z,15.20
2022-12-18T09:20:04.962Z,9.17
2022-12-18T09:22:33.248Z,9.80
2022-12-18T09:25:01.163Z,12.37
2022-12-18T09:27:29.138Z,13.00
2022-12-18T09:29:57.055Z,10.93
2022-12-18T09:32:25.020Z,12.47
2022-12-18T09:34:52.963Z,12.23
2022-12-18T09:37:22.201Z,13.87
2022-12-18T09:39:50.143Z,12.23
2022-12-18T09:42:23.253Z,13.77
2022-12-18T09:44:54.336Z,8.60
2022-12-18T09:47:27.415Z,8.13
2022-12-18T09:50:03.157Z,9.90
2022-12-18T09:52:39.576Z,12.80
2022-12-18T09:55:21.938Z,10.83
2022-12-18T09:57:55.383Z,11.13
2022-12-18T10:00:25.960Z,9.30
2022-12-18T10:02:58.955Z,11.10
2022-12-18T10:05:36.339Z,12.27
2022-12-18T10:08:13.317Z,12.07
2022-12-18T10:10:47.179Z,13.20
2022-12-18T10:13:22.689Z,12.73
2022-12-18T10:16:05.034Z,11.90
2022-12-18T10:18:46.710Z,12.07
2022-12-18T10:21:20.148Z,8.10
2022-12-18T10:24:01.232Z,11.23
2022-12-18T10:26:29.194Z,11.63
2022-12-18T10:29:05.144Z,8.87
2022-12-18T10:31:33.682Z,13.30
2022-12-18T10:34:01.656Z,12.50
2022-12-18T10:36:29.656Z,11.93
2022-12-18T10:39:17.782Z,12.50
2022-12-18T10:41:45.926Z,11.80
2022-12-18T10:44:20.325Z,9.03
2022-12-18T10:46:50.451Z,9.40
2022-12-18T10:49:27.506Z,12.50
2022-12-18T10:52:16.200Z,9.33
2022-12-18T10:54:54.867Z,11.57
2022-12-18T10:57:35.244Z,11.47
2022-12-18T11:00:25.878Z,11.80
2022-12-18T11:02:54.365Z,9.80
2022-12-18T11:05:29.770Z,11.30
2022-12-18T11:07:58.083Z,11.47
2022-12-18T11:10:32.299Z,11.37
2022-12-18T11:13:18.379Z,12.00
2022-12-18T11:15:47.197Z,11.40
2022-12-18T11:18:27.001Z,12.63
2022-12-18T11:20:59.036Z,12.10
2022-12-18T11:23:28.194Z,10.87
2022-12-18T11:25:59.760Z,12.93
2022-12-18T11:28:39.440Z,11.10
2022-12-18T11:31:19.324Z,12.83
2022-12-18T11:34:19.718Z,11.67
2022-12-18T11:36:47.371Z,11.70
2022-12-18T11:39:22.480Z,13.20
2022-12-18T11:42:13.684Z,7.73
2022-12-18T11:44:49.137Z,8.83
2022-12-18T11:47:28.049Z,10.43
2022-12-18T11:49:59.265Z,13.23
2022-12-18T11:52:32.453Z,10.10
2022-12-18T11:55:02.732Z,11.20
2022-12-18T11:57:42.010Z,11.67
2022-12-18T12:00:17.872Z,11.83
2022-12-18T12:03:23.360Z,9.30
2022-12-18T12:06:03.970Z,12.17
2022-12-18T12:08:44.326Z,10.40
2022-12-18T12:11:19.775Z,12.00
2022-12-18T12:13:57.375Z,11.27
2022-12-18T12:16:32.179Z,6.90
2022-12-18T12:19:26.681Z,11.17
2022-12-18T12:22:00.326Z,12.83
2022-12-18T12:24:40.528Z,10.83
2022-12-18T12:27:18.289Z,9.00
2022-12-18T12:30:03.415Z,12.40
2022-12-18T12:32:46.700Z,10.90
2022-12-18T12:35:30.605Z,11.77
2022-12-18T12:38:09.821Z,9.53
2022-12-18T12:40:55.170Z,10.37
2022-12-18T12:43:33.997Z,10.80
2022-12-18T12:46:08.125Z,9.80
2022-12-18T12:48:43.584Z,9.23
2022-12-18T12:51:20.809Z,12.40
2022-12-18T12:53:50.568Z,12.47
2022-12-18T12:56:22.277Z,10.23
2022-12-18T12:59:04.276Z,10.10
2022-12-18T13:01:42.503Z,12.63
2022-12-18T13:04:25.055Z,10.33
2022-12-18T13:07:00.733Z,12.57
2022-12-18T13:09:34.894Z,8.53
2022-12-18T13:12:24.257Z,9.10
2022-12-18T13:14:52.699Z,10.90
2022-12-18T13:17:33.179Z,11.13
2022-12-18T13:20:17.103Z,10.93
2022-12-18T13:22:47.651Z,12.67
2022-12-18T13:25:34.704Z,8.93
2022-12-18T13:28:14.685Z,11.20
2022-12-18T13:30:59.742Z,9.07
2022-12-18T13:34:09.431Z,7.93
2022-12-18T13:36:34.638Z,11.60
2022-12-18T13:42:59.243Z,14.63
2022-12-18T13:45:47.969Z,12.00
2022-12-18T13:48:22.057Z,10.10
2022-12-18T13:51:02.889Z,11.87
2022-12-18T13:53:41.334Z,12.57
2022-12-18T13:56:10.056Z,12.90
2022-12-18T13:58:38.496Z,9.87
2022-12-18T14:01:07.008Z,11.63
2022-12-18T14:03:36.178Z,13.23
2022-12-18T14:06:09.889Z,11.70
2022-12-18T14:08:41.737Z,13.10
2022-12-18T14:11:22.416Z,11.27
2022-12-18T14:13:52.343Z,11.83
2022-12-18T14:16:20.491Z,6.20
2022-12-18T14:18:55.491Z,11.90
2022-12-18T14:21:30.296Z,11.00
2022-12-18T14:24:15.498Z,11.07
2022-12-18T14:26:46.561Z,9.40
2022-12-18T14:29:25.870Z,10.93
2022-12-18T14:32:17.406Z,8.70
2022-12-18T14:34:47.036Z,11.00
2022-12-18T14:37:30.462Z,11.77
2022-12-18T14:40:00.109Z,8.50
2022-12-18T14:42:29.238Z,9.40
2022-12-18T14:45:41.507Z,8.10
2022-12-18T14:48:16.313Z,11.80
2022-12-18T14:50:59.815Z,10.23
2022-12-18T14:53:37.088Z,6.47
2022-12-18T14:56:17.024Z,8.43
2022-12-18T14:58:50.781Z,8.73
2022-12-18T15:01:25.530Z,10.70
2022-12-18T15:03:55.109Z,12.50
2022-12-18T15:06:33.133Z,9.93
2022-12-18T15:09:06.136Z,10.40
2022-12-18T15:11:47.055Z,8.07
2022-12-18T15:14:36.936Z,10.57
2022-12-18T15:17:08.318Z,11.90
2022-12-18T15:19:42.632Z,11.13
2022-12-18T15:22:23.735Z,10.00
2022-12-18T15:24:53.777Z,11.13
2022-12-18T15:27:28.180Z,11.13
2022-12-18T15:30:20.203Z,11.57
2022-12-18T15:32:48.783Z,14.20
2022-12-18T15:35:20.451Z,10.43
2022-12-18T15:37:49.220Z,10.47
2022-12-18T15:40:21.484Z,12.70
2022-12-18T15:43:08.059Z,11.30
2022-12-18T15:45:36.503Z,12.27
2022-12-18T15:48:07.512Z,12.40
2022-12-18T15:50:35.795Z,11.30
2022-12-18T15:53:07.065Z,8.27
2022-12-18T15:55:59.310Z,9.90
2022-12-18T15:58:29.019Z,14.00
2022-12-18T16:01:00.264Z,10.50
2022-12-18T16:03:28.580Z,12.80
2022-12-18T16:05:56.647Z,12.10
2022-12-18T16:08:26.243Z,12.40
2022-12-18T16:10:56.482Z,13.40
2022-12-18T16:13:25.013Z,12.20
2022-12-18T16:15:53.165Z,11.90
2022-12-18T16:18:21.296Z,12.90
2022-12-18T16:20:49.366Z,11.93
2022-12-18T16:23:17.372Z,9.07
2022-12-18T16:25:45.500Z,8.83
2022-12-18T16:28:14.993Z,13.60
2022-12-18T16:30:43.096Z,10.80
2022-12-18T16:33:12.629Z,9.00
2022-12-18T16:35:40.806Z,11.93
2022-12-18T16:38:08.884Z,12.47
2022-12-18T16:40:57.457Z,12.13
2022-12-18T16:43:27.461Z,11.10
2022-12-18T16:46:01.220Z,13.87
2022-12-18T16:48:29.460Z,10.03
2022-12-18T16:51:06.537Z,12.10
2022-12-18T16:53:35.144Z,7.70
2022-12-18T16:56:04.286Z,12.03
2022-12-18T16:58:34.657Z,12.73
2022-12-18T17:01:10.323Z,13.30
2022-12-18T17:03:38.684Z,13.43
2022-12-18T17:06:08.174Z,15.77
2022-12-18T17:08:36.291Z,14.57
2022-12-18T17:11:08.490Z,12.90
2022-12-18T17:13:39.358Z,11.67
2022-12-18T17:16:09.116Z,6.27
2022-12-18T17:18:37.153Z,11.97
2022-12-18T17:21:07.435Z,12.10
2022-12-18T17:23:35.538Z,12.27
2022-12-18T17:26:04.532Z,12.07
2022-12-18T17:28:32.555Z,9.27
2022-12-18T17:31:02.559Z,14.43
2022-12-18T17:33:30.801Z,12.80
2022-12-18T17:36:00.557Z,14.10
2022-12-18T17:38:28.676Z,13.57
2022-12-18T17:41:01.847Z,10.70
2022-12-18T17:43:32.983Z,11.80
2022-12-18T17:46:06.097Z,15.40
2022-12-18T17:48:39.074Z,12.57
2022-12-18T17:51:09.622Z,13.80
2022-12-18T17:53:40.764Z,12.73
2022-12-18T17:56:11.122Z,11.67
2022-12-18T17:58:39.654Z,12.53
2022-12-18T18:01:10.076Z,14.00
2022-12-18T18:03:41.894Z,12.30
2022-12-18T18:06:11.506Z,12.83
2022-12-18T18:08:39.518Z,11.77
2022-12-18T18:11:27.720Z,12.03
2022-12-18T18:14:01.949Z,13.77
2022-12-18T18:16:34.576Z,11.63
2022-12-18T18:19:04.768Z,14.40
2022-12-18T18:21:33.927Z,15.33
2022-12-18T18:24:03.389Z,14.40
2022-12-18T18:26:33.081Z,13.60
2022-12-18T18:29:02.586Z,10.40
2022-12-18T18:31:40.721Z,8.30
2022-12-18T18:34:14.939Z,15.27
2022-12-18T18:36:43.366Z,15.00
2022-12-18T18:39:11.393Z,10.20
2022-12-18T18:41:39.638Z,14.30
2022-12-18T18:44:08.086Z,12.73
2022-12-18T18:46:37.527Z,12.47
2022-12-18T18:49:06.170Z,9.37
2022-12-18T18:51:35.258Z,12.73
2022-12-18T18:54:04.105Z,10.77
2022-12-18T18:59:21.405Z,11.67
2022-12-18T19:02:05.759Z,12.60
2022-12-18T19:04:37.835Z,14.10
2022-12-18T19:07:23.907Z,12.50
2022-12-18T19:09:59.522Z,8.50
2022-12-18T19:12:51.815Z,13.37
2022-12-18T19:15:19.942Z,8.77
2022-12-18T19:17:49.871Z,8.53
2022-12-18T19:20:18.412Z,7.13
2022-12-18T19:22:55.566Z,14.33
2022-12-18T19:25:39.981Z,11.30
2022-12-18T19:28:22.145Z,15.00
2022-12-18T19:30:57.280Z,15.60
2022-12-18T19:33:45.954Z,9.63
2022-12-18T19:36:16.844Z,12.50
2022-12-18T19:38:46.136Z,14.70
2022-12-18T19:41:15.319Z,10.60
2022-12-18T19:43:44.946Z,14.30
2022-12-18T19:46:15.623Z,12.87
2022-12-18T19:48:46.057Z,13.67
2022-12-18T19:51:17.638Z,13.43
2022-12-18T19:53:46.230Z,14.40
2022-12-18T19:56:16.992Z,13.70
2022-12-18T19:58:46.126Z,12.43
2022-12-18T20:01:16.441Z,11.97
2022-12-18T20:03:52.652Z,10.20
2022-12-18T20:06:27.305Z,14.43
2022-12-18T20:09:00.335Z,14.07
2022-12-18T20:11:29.694Z,15.03
2022-12-18T20:13:57.834Z,13.27
2022-12-18T20:16:26.252Z,12.47
2022-12-18T20:18:56.637Z,10.17
2022-12-18T20:21:25.295Z,11.30
2022-12-18T20:23:54.877Z,13.60
2022-12-18T20:26:23.541Z,11.10
2022-12-18T20:28:51.974Z,10.63
2022-12-18T20:31:20.335Z,13.80
2022-12-18T20:33:50.951Z,12.63
2022-12-18T20:36:27.038Z,10.30
2022-12-18T20:38:59.442Z,13.50
2022-12-18T20:41:37.466Z,12.10
2022-12-18T20:44:07.503Z,11.50
2022-12-18T20:46:50.610Z,8.27
2022-12-18T20:49:18.549Z,10.90
2022-12-18T20:51:51.654Z,11.63
2022-12-18T20:54:19.704Z,10.83
2022-12-18T20:56:47.695Z,12.07
2022-12-18T20:59:15.905Z,13.57
2022-12-18T21:01:48.033Z,9.23
2022-12-18T21:04:20.159Z,14.20
2022-12-18T21:06:56.751Z,12.40
2022-12-18T21:09:37.498Z,12.73
2022-12-18T21:12:25.353Z,12.60
2022-12-18T21:17:44.566Z,13.07
2022-12-18T21:20:18.581Z,9.53
2022-12-18T21:22:49.545Z,12.13
2022-12-18T21:25:17.990Z,8.83
2022-12-18T21:27:46.036Z,11.63
2022-12-18T21:30:15.083Z,10.97
2022-12-18T21:32:43.343Z,11.37
2022-12-18T21:35:11.421Z,12.23
2022-12-18T21:37:39.552Z,11.97
2022-12-18T21:40:11.080Z,11.83
2022-12-18T21:42:56.635Z,11.77
2022-12-18T21:45:24.767Z,12.60
2022-12-18T21:47:53.153Z,14.83
2022-12-18T21:50:21.326Z,11.20
2022-12-18T21:52:49.509Z,13.90
2022-12-18T21:55:21.370Z,9.80
2022-12-18T21:57:50.414Z,11.73
2022-12-18T22:00:19.824Z,12.90
2022-12-18T22:03:12.698Z,10.60
2022-12-18T22:05:41.713Z,12.63
2022-12-18T22:08:09.765Z,14.77
2022-12-18T22:10:39.548Z,12.80
2022-12-18T22:13:08.443Z,10.40
2022-12-18T22:15:36.491Z,9.33
2022-12-18T22:18:04.845Z,7.80
2022-12-18T22:20:33.143Z,7.37
2022-12-18T22:23:04.092Z,13.60
2022-12-18T22:25:34.500Z,11.53
2022-12-18T22:28:22.574Z,10.87
2022-12-18T22:30:53.377Z,13.30
2022-12-18T22:33:27.637Z,14.17
2022-12-18T22:35:55.848Z,8.97
2022-12-18T22:38:24.069Z,12.67
2022-12-18T22:40:52.259Z,12.30
2022-12-18T22:43:21.901Z,14.23
2022-12-18T22:45:50.328Z,10.77
2022-12-18T22:48:18.443Z,12.10
2022-12-18T22:50:47.320Z,10.70
2022-12-18T22:53:17.369Z,14.57
2022-12-18T22:55:45.656Z,13.50
2022-12-18T22:58:13.740Z,14.90
2022-12-18T23:00:43.712Z,12.30
2022-12-18T23:03:11.850Z,14.03
2022-12-18T23:05:39.915Z,12.27
2022-12-18T23:08:07.880Z,10.73
2022-12-18T23:10:38.715Z,11.70
2022-12-18T23:13:06.814Z,15.10
2022-12-18T23:15:35.056Z,14.70
2022-12-18T23:18:04.566Z,15.07
2022-12-18T23:20:32.678Z,15.27
2022-12-18T23:23:02.274Z,13.23
2022-12-18T23:25:30.339Z,12.93
2022-12-18T23:27:58.295Z,13.60
2022-12-18T23:30:26.472Z,12.60
2022-12-18T23:32:54.559Z,14.33
2022-12-18T23:35:24.212Z,12.90
2022-12-18T23:38:00.114Z,14.43
2022-12-18T23:40:29.417Z,11.40
2022-12-18T23:42:57.576Z,13.53
2022-12-18T23:45:25.947Z,15.93
2022-12-18T23:47:54.134Z,14.00
2022-12-18T23:50:28.846Z,10.87
2022-12-18T23:53:02.541Z,12.37
2022-12-18T23:55:33.809Z,15.30
2022-12-18T23:58:02.078Z,13.13
